Time;durP1;ratioP1;P1;durP2;ratioP2;P2;SDS_P1;SDS_P2;PMS_P1;PMS_P2;Temp;Humidity;BMP_temperature;BMP_pressure;BME280_temperature;BME280_humidity;BME280_pressure;Samples;Min_cycle;Max_cycle;Signal;HPM_P1;HPM_P2
2022/05/25 00:00:21;;;;;;;0.40;0.40;;;;;10.30;93822.00;;;;7396145;19;20587;-76
2022/05/25 00:02:56;;;;;;;1.33;0.80;;;;;10.20;93810.00;;;;7397576;19;20152;-76
2022/05/25 00:05:31;;;;;;;0.83;0.67;;;;;10.40;93824.00;;;;7393867;19;20216;-76
2022/05/25 00:07:59;;;;;;;1.33;0.60;;;;;10.40;93825.00;;;;7395684;19;20152;-76
2022/05/25 00:10:26;;;;;;;0.93;0.80;;;;;10.40;93823.00;;;;7395779;19;20205;-76
2022/05/25 00:13:01;;;;;;;1.77;0.60;;;;;10.30;93828.00;;;;7396997;19;20128;-78
2022/05/25 00:15:28;;;;;;;1.83;0.63;;;;;10.60;93824.00;;;;7395800;19;20133;-76
2022/05/25 00:17:56;;;;;;;1.90;0.80;;;;;10.40;93821.00;;;;7396293;19;20154;-77
2022/05/25 00:20:30;;;;;;;0.77;0.63;;;;;10.50;93823.00;;;;7395825;19;20518;-78
2022/05/25 00:22:58;;;;;;;1.10;0.80;;;;;10.50;93825.00;;;;7396470;19;20129;-77
2022/05/25 00:25:30;;;;;;;0.60;0.60;;;;;10.30;93819.00;;;;7394057;19;20153;-77
2022/05/25 00:28:07;;;;;;;0.60;0.55;;;;;10.30;93826.00;;;;7396015;19;20152;-76
2022/05/25 00:30:35;;;;;;;1.77;0.70;;;;;10.30;93824.00;;;;7395023;19;20231;-78
2022/05/25 00:33:03;;;;;;;1.37;0.80;;;;;10.20;93822.00;;;;7395974;19;20137;-77
2022/05/25 00:35:39;;;;;;;1.60;0.73;;;;;10.20;93825.00;;;;7395209;19;20156;-78
2022/05/25 00:38:08;;;;;;;1.10;0.77;;;;;10.10;93827.00;;;;7395595;19;20579;-77
2022/05/25 00:40:42;;;;;;;0.60;0.57;;;;;10.10;93828.00;;;;7394845;19;20136;-78
2022/05/25 00:43:16;;;;;;;0.80;0.70;;;;;10.10;93834.00;;;;7396376;19;20151;-79
2022/05/25 00:46:07;;;;;;;1.27;0.63;;;;;10.10;93837.00;;;;7393482;19;20134;-78
2022/05/25 00:48:48;;;;;;;0.85;0.80;;;;;10.20;93834.00;;;;7395507;19;20140;-78
2022/05/25 00:51:24;;;;;;;1.45;0.82;;;;;10.20;93840.00;;;;7396132;19;20163;-78
2022/05/25 00:54:03;;;;;;;1.40;0.75;;;;;10.20;93841.00;;;;7395872;19;20469;-78
2022/05/25 00:56:33;;;;;;;2.80;0.90;;;;;10.20;93845.00;;;;7394733;19;20613;-78
2022/05/25 00:59:09;;;;;;;0.90;0.60;;;;;10.20;93850.00;;;;7394327;19;20117;-78
2022/05/25 01:01:37;;;;;;;0.82;0.70;;;;;10.20;93839.00;;;;7394344;19;20635;-78
2022/05/25 01:04:05;;;;;;;1.07;0.70;;;;;10.30;93838.00;;;;7393300;19;20594;-78
2022/05/25 01:07:06;;;;;;;0.70;0.60;;;;;10.10;93847.00;;;;7395972;19;20583;-78
2022/05/25 01:09:37;;;;;;;0.90;0.60;;;;;10.20;93849.00;;;;7395234;19;20212;-76
2022/05/25 01:12:22;;;;;;;1.00;0.70;;;;;10.00;93857.00;;;;7395708;19;20141;-77
2022/05/25 01:15:11;;;;;;;1.10;0.77;;;;;10.10;93852.00;;;;7394069;19;20147;-76
2022/05/25 01:18:18;;;;;;;0.60;0.60;;;;;10.00;93865.00;;;;7393963;19;20475;-76
2022/05/25 01:20:53;;;;;;;1.53;0.90;;;;;10.20;93848.00;;;;7392981;19;20204;-77
2022/05/25 01:23:58;;;;;;;1.23;0.70;;;;;10.10;93857.00;;;;7395027;19;20460;-77
2022/05/25 01:26:38;;;;;;;0.60;0.60;;;;;10.00;93863.00;;;;7394982;19;20204;-77
2022/05/25 01:29:21;;;;;;;2.37;0.70;;;;;10.00;93860.00;;;;7393603;19;20129;-77
2022/05/25 01:31:58;;;;;;;0.87;0.80;;;;;10.00;93864.00;;;;7394780;19;20129;-77
2022/05/25 01:34:43;;;;;;;2.60;0.90;;;;;10.00;93859.00;;;;7392699;19;20144;-77
2022/05/25 01:37:32;;;;;;;1.17;0.60;;;;;10.00;93862.00;;;;7393263;19;20136;-77
2022/05/25 01:40:32;;;;;;;0.57;0.57;;;;;9.90;93870.00;;;;7393189;19;20145;-77
2022/05/25 01:43:08;;;;;;;0.50;0.43;;;;;9.80;93864.00;;;;7392653;19;20202;-76
2022/05/25 01:45:54;;;;;;;2.33;0.70;;;;;9.90;93863.00;;;;7386181;19;20591;-76
2022/05/25 01:48:24;;;;;;;0.70;0.70;;;;;9.90;93866.00;;;;7394927;19;20625;-78
2022/05/25 01:51:13;;;;;;;0.70;0.60;;;;;10.00;93862.00;;;;7395719;19;20152;-77
2022/05/25 01:53:43;;;;;;;0.73;0.53;;;;;10.00;93863.00;;;;7396398;19;20148;-76
2022/05/25 01:56:21;;;;;;;2.40;0.80;;;;;10.10;93858.00;;;;7393152;19;20140;-77
2022/05/25 01:58:54;;;;;;;1.17;0.90;;;;;10.10;93872.00;;;;7394401;19;20623;-76
2022/05/25 02:01:28;;;;;;;0.70;0.70;;;;;10.00;93867.00;;;;7395820;19;20131;-77
2022/05/25 02:04:24;;;;;;;1.60;0.70;;;;;10.00;93866.00;;;;7391752;19;20599;-76
2022/05/25 02:07:22;;;;;;;1.60;1.08;;;;;9.80;93869.00;;;;7395721;19;20160;-77
2022/05/25 02:09:59;;;;;;;1.77;1.00;;;;;9.70;93866.00;;;;7391206;19;20145;-78
2022/05/25 02:13:11;;;;;;;2.00;0.73;;;;;9.80;93874.00;;;;7395264;19;20172;-77
2022/05/25 02:15:46;;;;;;;0.83;0.70;;;;;9.80;93869.00;;;;7396945;19;20132;-77
2022/05/25 02:18:28;;;;;;;0.73;0.70;;;;;9.70;93861.00;;;;7394399;19;20148;-77
2022/05/25 02:21:13;;;;;;;1.85;0.70;;;;;9.80;93870.00;;;;7393723;19;20168;-76
2022/05/25 02:23:53;;;;;;;2.75;0.98;;;;;9.90;93861.00;;;;7398013;19;20602;-77
2022/05/25 02:26:38;;;;;;;2.87;1.10;;;;;10.00;93866.00;;;;7393430;19;20211;-77
2022/05/25 02:29:20;;;;;;;0.90;0.90;;;;;10.00;93863.00;;;;7394569;19;20488;-77
2022/05/25 02:32:05;;;;;;;1.53;0.80;;;;;10.00;93869.00;;;;7395293;19;20139;-76
2022/05/25 02:34:43;;;;;;;1.47;0.60;;;;;10.10;93864.00;;;;7388391;19;20529;-76
2022/05/25 02:37:12;;;;;;;3.60;0.67;;;;;10.00;93873.00;;;;7394350;19;20231;-77
2022/05/25 02:39:52;;;;;;;0.77;0.77;;;;;9.90;93867.00;;;;7395430;19;20490;-76
2022/05/25 02:42:20;;;;;;;2.83;1.02;;;;;10.00;93873.00;;;;7390226;19;20182;-76
2022/05/25 02:44:54;;;;;;;0.68;0.68;;;;;10.00;93877.00;;;;7390619;19;20464;-78
2022/05/25 02:47:22;;;;;;;0.98;0.80;;;;;10.00;93882.00;;;;7392402;19;20605;-78
2022/05/25 02:49:50;;;;;;;2.97;0.93;;;;;10.00;93870.00;;;;7391022;19;20603;-78
2022/05/25 02:52:23;;;;;;;3.10;0.87;;;;;10.10;93877.00;;;;7391965;19;20140;-78
2022/05/25 02:54:51;;;;;;;4.33;0.97;;;;;10.00;93871.00;;;;7392363;19;20579;-77
2022/05/25 02:57:18;;;;;;;1.63;0.70;;;;;10.10;93874.00;;;;7391788;19;20160;-78
2022/05/25 02:59:52;;;;;;;1.97;0.87;;;;;10.00;93870.00;;;;7390278;19;20895;-76
2022/05/25 03:02:33;;;;;;;1.50;0.90;;;;;10.00;93874.00;;;;7390604;19;20162;-77
2022/05/25 03:05:09;;;;;;;0.67;0.60;;;;;10.10;93874.00;;;;7390863;19;20491;-79
2022/05/25 03:07:38;;;;;;;2.13;0.80;;;;;10.00;93879.00;;;;7390529;19;20133;-77
2022/05/25 03:10:06;;;;;;;1.70;0.70;;;;;10.00;93877.00;;;;7391815;19;20125;-76
2022/05/25 03:12:41;;;;;;;0.80;0.50;;;;;9.80;93873.00;;;;7390136;19;20577;-77
2022/05/25 03:15:09;;;;;;;1.17;0.83;;;;;9.90;93885.00;;;;7392079;19;20486;-77
2022/05/25 03:17:37;;;;;;;1.27;0.87;;;;;9.90;93881.00;;;;7390440;19;20541;-77
2022/05/25 03:20:11;;;;;;;0.93;0.87;;;;;10.00;93880.00;;;;7389729;19;20124;-76
2022/05/25 03:22:44;;;;;;;5.33;0.77;;;;;9.90;93877.00;;;;7390069;19;20615;-77
2022/05/25 03:25:18;;;;;;;0.70;0.60;;;;;9.80;93877.00;;;;7389108;19;20158;-77
2022/05/25 03:27:46;;;;;;;2.60;1.00;;;;;9.90;93882.00;;;;7390970;19;20623;-77
2022/05/25 03:30:15;;;;;;;4.63;1.03;;;;;9.90;93889.00;;;;7389835;19;20141;-78
2022/05/25 03:32:51;;;;;;;1.63;1.00;;;;;9.80;93891.00;;;;7389572;19;20202;-77
2022/05/25 03:35:19;;;;;;;3.37;0.70;;;;;9.70;93891.00;;;;7390016;19;20151;-77
2022/05/25 03:37:47;;;;;;;1.00;0.97;;;;;9.70;93891.00;;;;7390568;19;20492;-76
2022/05/25 03:40:21;;;;;;;1.50;0.73;;;;;9.60;93898.00;;;;7391408;19;20128;-77
2022/05/25 03:42:49;;;;;;;1.03;0.80;;;;;9.60;93903.00;;;;7389566;19;20627;-77
2022/05/25 03:45:17;;;;;;;1.03;0.90;;;;;9.40;93903.00;;;;7389033;19;20125;-78
2022/05/25 03:47:53;;;;;;;2.07;0.97;;;;;9.40;93906.00;;;;7389850;19;20148;-77
2022/05/25 03:50:21;;;;;;;2.07;0.90;;;;;9.40;93913.00;;;;7389605;19;20147;-78
2022/05/25 03:52:49;;;;;;;0.97;0.83;;;;;9.40;93912.00;;;;7389200;19;20169;-78
2022/05/25 03:55:23;;;;;;;3.40;1.10;;;;;9.30;93913.00;;;;7389305;19;20158;-77
2022/05/25 03:57:51;;;;;;;1.23;1.00;;;;;9.30;93921.00;;;;7390314;19;20137;-78
2022/05/25 04:00:19;;;;;;;4.17;1.17;;;;;9.30;93923.00;;;;7388336;19;20129;-78
2022/05/25 04:03:06;;;;;;;1.77;1.20;;;;;9.30;93925.00;;;;7388340;19;20156;-77
2022/05/25 04:05:41;;;;;;;1.13;0.90;;;;;9.10;93934.00;;;;7385109;19;20200;-77
2022/05/25 04:08:15;;;;;;;0.83;0.73;;;;;9.20;93937.00;;;;7386054;19;20133;-78
2022/05/25 04:10:43;;;;;;;1.10;0.80;;;;;9.30;93948.00;;;;7394267;19;20137;-77
2022/05/25 04:13:11;;;;;;;2.53;0.90;;;;;9.30;93944.00;;;;7395732;19;20220;-77
2022/05/25 04:15:45;;;;;;;3.73;1.20;;;;;9.40;93954.00;;;;7394547;19;20148;-77
2022/05/25 04:18:13;;;;;;;1.73;0.80;;;;;9.40;93957.00;;;;7396222;19;20637;-77
2022/05/25 04:20:41;;;;;;;1.77;1.13;;;;;9.40;93966.00;;;;7395459;19;20528;-77
2022/05/25 04:23:15;;;;;;;2.90;1.07;;;;;9.40;93960.00;;;;7396348;19;20147;-77
2022/05/25 04:25:43;;;;;;;3.07;1.00;;;;;9.50;93959.00;;;;7395265;19;20629;-76
2022/05/25 04:28:11;;;;;;;2.20;1.03;;;;;9.60;93954.00;;;;7399058;19;20487;-78
2022/05/25 04:30:44;;;;;;;2.73;0.73;;;;;9.70;93968.00;;;;7396025;19;20514;-77
2022/05/25 04:33:12;;;;;;;2.53;1.00;;;;;9.60;93975.00;;;;7395390;19;20148;-77
2022/05/25 04:35:40;;;;;;;3.23;0.90;;;;;9.50;93971.00;;;;7397021;19;20155;-77
2022/05/25 04:38:15;;;;;;;3.53;1.07;;;;;9.60;93976.00;;;;7396152;19;20147;-77
2022/05/25 04:40:44;;;;;;;2.00;0.90;;;;;9.60;93976.00;;;;7394833;19;20145;-78
2022/05/25 04:43:15;;;;;;;1.27;0.97;;;;;9.70;93969.00;;;;7394837;19;20652;-77
2022/05/25 04:45:51;;;;;;;1.47;0.87;;;;;9.70;93975.00;;;;7393391;19;20136;-77
2022/05/25 04:48:23;;;;;;;2.73;1.00;;;;;9.60;93985.00;;;;7395654;19;20133;-77
2022/05/25 04:50:57;;;;;;;1.90;0.93;;;;;9.70;93980.00;;;;7395797;19;20160;-78
2022/05/25 04:53:25;;;;;;;1.63;1.00;;;;;9.50;93978.00;;;;7394782;19;20650;-77
2022/05/25 04:58:47;;;;;;;3.07;1.03;;;;;9.90;93981.00;;;;7396017;19;20616;-77
2022/05/25 05:01:19;;;;;;;1.40;1.10;;;;;10.10;93979.00;;;;7388488;19;20845;-78
2022/05/25 05:04:12;;;;;;;2.77;1.17;;;;;10.40;93979.00;;;;7397191;19;20647;-77
2022/05/25 05:06:49;;;;;;;2.63;0.90;;;;;10.40;93991.00;;;;7397604;19;20143;-76
2022/05/25 05:09:23;;;;;;;3.60;1.20;;;;;10.50;93991.00;;;;7398766;19;20124;-77
2022/05/25 05:11:50;;;;;;;1.47;1.20;;;;;10.60;93986.00;;;;7399071;19;20152;-77
2022/05/25 05:14:19;;;;;;;1.83;1.00;;;;;10.60;93996.00;;;;7400785;19;20508;-76
2022/05/25 05:16:58;;;;;;;1.63;1.37;;;;;10.90;93995.00;;;;7396507;19;20149;-77
2022/05/25 05:19:29;;;;;;;3.17;1.07;;;;;11.10;94002.00;;;;7399021;19;20204;-77
2022/05/25 05:22:04;;;;;;;1.30;1.20;;;;;11.20;94000.00;;;;7399240;19;20144;-76
2022/05/25 05:24:32;;;;;;;0.70;0.70;;;;;11.00;94007.00;;;;7402720;19;20153;-75
2022/05/25 05:27:00;;;;;;;1.70;1.00;;;;;10.80;94009.00;;;;7394414;19;20654;-76
2022/05/25 05:29:35;;;;;;;2.07;0.93;;;;;10.80;94004.00;;;;7398894;19;20183;-76
2022/05/25 05:32:03;;;;;;;1.98;1.08;;;;;10.80;94016.00;;;;7400261;19;20147;-76
2022/05/25 05:34:31;;;;;;;1.10;0.93;;;;;11.10;94012.00;;;;7402170;19;20172;-76
2022/05/25 05:37:29;;;;;;;1.77;0.83;;;;;11.40;94021.00;;;;7398126;19;20156;-76
2022/05/25 05:39:58;;;;;;;1.38;0.90;;;;;11.80;94012.00;;;;7400025;19;20577;-76
2022/05/25 05:42:36;;;;;;;2.55;0.82;;;;;11.90;94029.00;;;;7401313;19;20602;-77
2022/05/25 05:45:33;;;;;;;3.08;1.10;;;;;11.80;94028.00;;;;7401319;19;20156;-76
2022/05/25 05:48:21;;;;;;;3.90;1.10;;;;;12.10;94017.00;;;;7402802;19;20144;-76
2022/05/25 05:50:51;;;;;;;2.03;0.90;;;;;12.50;94029.00;;;;7400035;19;20506;-76
2022/05/25 05:53:27;;;;;;;0.68;0.65;;;;;12.60;94026.00;;;;7401046;19;20137;-77
2022/05/25 05:55:57;;;;;;;1.10;0.82;;;;;12.70;94028.00;;;;7401759;19;20172;-76
2022/05/25 05:58:25;;;;;;;1.65;1.00;;;;;12.70;94024.00;;;;7402505;19;20145;-77
2022/05/25 06:01:00;;;;;;;4.40;1.23;;;;;13.00;94030.00;;;;7399842;19;20192;-76
2022/05/25 06:03:41;;;;;;;2.03;1.00;;;;;13.00;94021.00;;;;7399506;19;20586;-76
2022/05/25 06:06:16;;;;;;;3.20;1.23;;;;;13.10;94035.00;;;;7398824;19;20125;-77
2022/05/25 06:08:46;;;;;;;3.42;1.10;;;;;13.20;94039.00;;;;7400519;19;20615;-78
2022/05/25 06:11:18;;;;;;;1.38;1.00;;;;;13.40;94041.00;;;;7397854;19;20157;-77
2022/05/25 06:13:53;;;;;;;3.28;1.17;;;;;13.50;94039.00;;;;7398948;19;20153;-77
2022/05/25 06:19:26;;;;;;;1.85;1.10;;;;;13.90;94053.00;;;;7397743;19;20153;-77
2022/05/25 06:22:02;;;;;;;2.35;1.15;;;;;14.10;94058.00;;;;7398976;19;20144;-78
2022/05/25 06:24:48;;;;;;;3.30;1.30;;;;;14.30;94068.00;;;;7400427;19;20474;-78
2022/05/25 06:27:18;;;;;;;3.78;0.98;;;;;14.20;94067.00;;;;7395885;19;20753;-78
2022/05/25 06:29:52;;;;;;;3.00;0.93;;;;;14.50;94071.00;;;;7399483;19;20132;-79
2022/05/25 06:32:23;;;;;;;1.05;0.88;;;;;14.60;94074.00;;;;7397301;19;20154;-79
2022/05/25 06:34:51;;;;;;;1.83;1.00;;;;;14.50;94075.00;;;;7396992;19;20136;-78
2022/05/25 06:37:26;;;;;;;5.18;1.27;;;;;14.90;94074.00;;;;7397404;19;20156;-77
2022/05/25 06:39:54;;;;;;;1.95;1.00;;;;;14.80;94073.00;;;;7398889;19;20667;-77
2022/05/25 06:42:22;;;;;;;0.85;0.85;;;;;15.00;94074.00;;;;7399991;19;20161;-79
2022/05/25 06:44:57;;;;;;;1.42;1.30;;;;;14.90;94084.00;;;;7399487;19;20882;-78
2022/05/25 06:47:25;;;;;;;1.30;1.10;;;;;15.00;94087.00;;;;7396329;19;20608;-78
2022/05/25 06:49:54;;;;;;;3.65;0.90;;;;;15.10;94084.00;;;;7399517;19;20595;-77
2022/05/25 06:52:29;;;;;;;2.13;0.95;;;;;15.10;94090.00;;;;7399779;19;20140;-76
2022/05/25 06:54:57;;;;;;;0.75;0.60;;;;;15.70;94089.00;;;;7398270;19;20172;-76
2022/05/25 06:57:25;;;;;;;1.90;0.95;;;;;15.60;94095.00;;;;7394925;19;20476;-77
2022/05/25 07:00:00;;;;;;;2.15;1.02;;;;;15.30;94107.00;;;;7398375;19;20144;-76
2022/05/25 07:02:28;;;;;;;2.03;0.98;;;;;15.40;94097.00;;;;7398532;19;20136;-75
2022/05/25 07:04:56;;;;;;;5.90;1.13;;;;;15.40;94105.00;;;;7393664;19;20659;-76
2022/05/25 07:07:38;;;;;;;2.00;1.00;;;;;15.50;94109.00;;;;7395927;19;20152;-76
2022/05/25 07:10:06;;;;;;;1.05;1.00;;;;;15.50;94107.00;;;;7397706;19;20594;-75
2022/05/25 07:12:42;;;;;;;1.30;0.93;;;;;15.90;94103.00;;;;7397754;19;20154;-75
2022/05/25 07:15:11;;;;;;;1.58;0.80;;;;;15.80;94106.00;;;;7397738;19;20129;-77
2022/05/25 07:17:39;;;;;;;3.05;1.00;;;;;15.60;94106.00;;;;7397554;19;20144;-77
2022/05/25 07:20:15;;;;;;;2.58;0.95;;;;;15.40;94110.00;;;;7398185;19;20144;-76
2022/05/25 07:22:43;;;;;;;3.38;0.98;;;;;15.90;94113.00;;;;7398510;19;20164;-77
2022/05/25 07:25:11;;;;;;;0.93;0.80;;;;;15.90;94117.00;;;;7396107;19;20172;-76
2022/05/25 07:27:46;;;;;;;1.42;0.90;;;;;16.00;94111.00;;;;7396073;19;20208;-76
2022/05/25 07:30:16;;;;;;;1.27;1.00;;;;;16.30;94125.00;;;;7396252;19;20155;-78
2022/05/25 07:32:46;;;;;;;1.50;0.98;;;;;16.10;94124.00;;;;7399366;19;20141;-76
2022/05/25 07:35:22;;;;;;;4.10;0.88;;;;;16.10;94131.00;;;;7395073;19;20144;-76
2022/05/25 07:37:53;;;;;;;1.15;0.70;;;;;16.10;94131.00;;;;7397154;19;20121;-76
2022/05/25 07:40:33;;;;;;;2.45;0.82;;;;;16.10;94123.00;;;;7397215;19;20488;-74
2022/05/25 07:43:13;;;;;;;2.70;1.10;;;;;15.90;94128.00;;;;7395776;19;20595;-76
2022/05/25 07:45:47;;;;;;;1.63;0.70;;;;;16.10;94135.00;;;;7404398;19;20153;-76
2022/05/25 07:48:16;;;;;;;0.73;0.70;;;;;16.30;94132.00;;;;7407282;19;20152;-76
2022/05/25 07:50:44;;;;;;;2.45;1.00;;;;;16.50;94125.00;;;;7405800;19;20157;-76
2022/05/25 07:56:06;;;;;;;1.80;0.70;;;;;16.40;94138.00;;;;7406814;19;20133;-78
2022/05/25 07:58:40;;;;;;;1.45;0.68;;;;;16.70;94130.00;;;;7408453;19;20681;-79
2022/05/25 08:01:14;;;;;;;1.27;0.90;;;;;17.20;94129.00;;;;7401738;19;20623;-79
2022/05/25 08:06:49;;;;;;;1.00;0.73;;;;;17.10;94128.00;;;;7404477;19;20152;-80
2022/05/25 08:09:27;;;;;;;0.85;0.70;;;;;16.90;94151.00;;;;7402715;19;20219;-76
2022/05/25 08:11:55;;;;;;;1.02;0.63;;;;;16.10;94153.00;;;;7404650;19;20141;-78
2022/05/25 08:14:25;;;;;;;1.35;0.73;;;;;15.20;94151.00;;;;7403580;19;20133;-77
2022/05/25 08:17:00;;;;;;;2.05;0.95;;;;;15.30;94132.00;;;;7401588;19;20168;-77
2022/05/25 08:19:27;;;;;;;1.23;0.75;;;;;16.00;94128.00;;;;7400965;19;20169;-77
2022/05/25 08:21:55;;;;;;;1.27;0.57;;;;;16.50;94127.00;;;;7400948;19;20520;-76
2022/05/25 08:24:31;;;;;;;4.22;1.02;;;;;16.80;94151.00;;;;7404112;19;20220;-76
2022/05/25 08:27:05;;;;;;;6.95;0.80;;;;;16.40;94139.00;;;;7399560;19;20136;-76
2022/05/25 08:29:41;;;;;;;1.65;0.80;;;;;16.20;94132.00;;;;7402106;19;20154;-77
2022/05/25 08:32:09;;;;;;;0.80;0.80;;;;;16.00;94132.00;;;;7402824;19;20137;-75
2022/05/25 08:34:37;;;;;;;1.05;0.60;;;;;16.40;94138.00;;;;7402350;19;20145;-75
2022/05/25 08:37:12;;;;;;;2.90;1.25;;;;;17.10;94137.00;;;;7400377;19;20153;-77
2022/05/25 08:39:40;;;;;;;2.95;0.80;;;;;17.50;94134.00;;;;7399450;19;20160;-78
2022/05/25 08:42:14;;;;;;;1.42;0.75;;;;;17.80;94143.00;;;;7403559;19;20225;-76
2022/05/25 08:44:50;;;;;;;1.85;1.10;;;;;18.10;94138.00;;;;7399478;19;20214;-78
2022/05/25 08:47:19;;;;;;;1.45;0.85;;;;;17.90;94121.00;;;;7395426;19;20141;-78
2022/05/25 08:49:49;;;;;;;2.67;0.90;;;;;17.30;94152.00;;;;7396460;19;20688;-77
2022/05/25 08:52:34;;;;;;;3.00;0.85;;;;;16.50;94128.00;;;;7398442;19;20654;-76
2022/05/25 08:55:06;;;;;;;2.00;0.90;;;;;17.30;94129.00;;;;7397078;19;20161;-76
2022/05/25 08:57:51;;;;;;;1.98;0.95;;;;;17.60;94131.00;;;;7397901;19;20125;-76
2022/05/25 09:00:22;;;;;;;1.55;0.68;;;;;17.90;94155.00;;;;7398614;19;20133;-78
2022/05/25 09:03:23;;;;;;;0.90;0.73;;;;;17.50;94131.00;;;;7397361;19;20588;-78
2022/05/25 09:06:21;;;;;;;3.88;1.20;;;;;17.30;94135.00;;;;7398498;19;20149;-77
2022/05/25 09:09:12;;;;;;;1.25;0.77;;;;;17.80;94154.00;;;;7396065;19;20124;-77
2022/05/25 09:11:48;;;;;;;2.40;0.77;;;;;17.10;94135.00;;;;7398682;19;20503;-77
2022/05/25 09:14:33;;;;;;;3.13;0.70;;;;;17.30;94140.00;;;;7400799;19;20149;-82
2022/05/25 09:17:08;;;;;;;2.45;0.82;;;;;17.30;94130.00;;;;7399311;19;20160;-77
2022/05/25 09:19:46;;;;;;;3.42;0.82;;;;;17.90;94139.00;;;;7399846;19;20156;-78
2022/05/25 09:22:21;;;;;;;0.77;0.77;;;;;18.30;94138.00;;;;7397998;19;20188;-78
2022/05/25 09:24:58;;;;;;;1.98;0.90;;;;;18.60;94132.00;;;;7397794;19;20149;-78
2022/05/25 09:27:52;;;;;;;1.55;0.80;;;;;19.00;94168.00;;;;7397467;19;20144;-77
2022/05/25 09:30:26;;;;;;;1.77;0.90;;;;;18.30;94154.00;;;;7402347;19;20132;-77
2022/05/25 09:33:02;;;;;;;5.47;0.90;;;;;18.30;94149.00;;;;7398459;19;20173;-78
2022/05/25 09:35:46;;;;;;;2.17;0.70;;;;;19.00;94145.00;;;;7399548;19;20208;-77
2022/05/25 09:38:27;;;;;;;1.33;0.80;;;;;19.10;94152.00;;;;7400141;19;20624;-77
2022/05/25 09:41:09;;;;;;;1.08;0.80;;;;;19.10;94155.00;;;;7393005;19;20144;-76
2022/05/25 09:43:38;;;;;;;2.97;0.88;;;;;19.20;94141.00;;;;7398950;19;20138;-75
2022/05/25 09:46:37;;;;;;;1.55;0.80;;;;;19.70;94145.00;;;;7399371;19;20611;-77
2022/05/25 09:49:13;;;;;;;3.15;0.75;;;;;20.20;94147.00;;;;7397181;19;20153;-77
2022/05/25 09:51:51;;;;;;;3.08;0.75;;;;;19.50;94167.00;;;;7399727;19;20475;-78
2022/05/25 09:54:34;;;;;;;2.90;0.73;;;;;18.90;94152.00;;;;7402592;19;20148;-76
2022/05/25 09:57:45;;;;;;;1.23;0.70;;;;;19.60;94158.00;;;;7399371;19;20148;-80
2022/05/25 10:00:21;;;;;;;1.02;0.90;;;;;18.90;94150.00;;;;7401280;19;20148;-78
2022/05/25 10:03:29;;;;;;;1.25;0.73;;;;;19.40;94149.00;;;;7398614;19;20144;-80
2022/05/25 10:06:24;;;;;;;1.45;0.73;;;;;19.50;94149.00;;;;7400121;19;20121;-78
2022/05/25 10:09:23;;;;;;;1.67;0.90;;;;;19.90;94155.00;;;;7398551;19;20595;-78
2022/05/25 10:12:16;;;;;;;1.77;0.73;;;;;20.20;94154.00;;;;7400126;19;20192;-78
2022/05/25 10:15:21;;;;;;;1.40;0.75;;;;;20.30;94164.00;;;;7397477;19;20194;-77
2022/05/25 10:17:49;;;;;;;1.10;0.85;;;;;20.40;94164.00;;;;7397257;19;20643;-77
2022/05/25 10:20:30;;;;;;;2.88;0.98;;;;;20.60;94167.00;;;;7395009;19;20164;-78
2022/05/25 10:23:11;;;;;;;2.17;0.90;;;;;21.20;94177.00;;;;7398173;19;20204;-77
2022/05/25 10:26:10;;;;;;;0.75;0.68;;;;;20.80;94177.00;;;;7397717;19;20496;-75
2022/05/25 10:29:03;;;;;;;0.60;0.60;;;;;20.60;94162.00;;;;7395871;19;20141;-79
2022/05/25 10:37:42;;;;;;;3.15;0.73;;;;;21.50;94158.00;;;;7396225;19;20556;-77
2022/05/25 10:40:10;;;;;;;1.90;1.00;;;;;21.80;94154.00;;;;7399447;19;20620;-78
2022/05/25 10:42:39;;;;;;;1.20;0.82;;;;;20.70;94159.00;;;;7399582;19;20668;-77
2022/05/25 10:45:18;;;;;;;2.90;0.82;;;;;20.90;94155.00;;;;7394624;19;20152;-77
2022/05/25 10:47:54;;;;;;;1.05;0.93;;;;;21.10;94162.00;;;;7396662;19;20173;-78
2022/05/25 10:50:35;;;;;;;1.52;0.75;;;;;21.60;94155.00;;;;7398558;19;20140;-77
2022/05/25 10:57:03;;;;;;;1.55;0.90;;;;;19.90;94193.00;;;;7395999;19;20136;-77
2022/05/25 10:59:50;;;;;;;1.42;0.60;;;;;20.10;94167.00;;;;7396549;19;20219;-78
2022/05/25 11:02:37;;;;;;;1.52;0.85;;;;;21.00;94164.00;;;;7397450;19;20140;-78
2022/05/25 11:05:30;;;;;;;2.35;0.90;;;;;21.20;94166.00;;;;7394553;19;20193;-78
2022/05/25 11:08:21;;;;;;;1.23;0.80;;;;;21.60;94154.00;;;;7397100;19;20532;-79
2022/05/25 11:11:06;;;;;;;5.85;0.88;;;;;21.40;94158.00;;;;7398383;19;20121;-78
2022/05/25 11:13:52;;;;;;;1.38;0.93;;;;;21.30;94156.00;;;;7396079;19;20500;-78
2022/05/25 11:16:40;;;;;;;2.05;0.63;;;;;21.40;94161.00;;;;7398920;19;20153;-78
2022/05/25 11:19:34;;;;;;;0.75;0.60;;;;;22.00;94165.00;;;;7400417;19;20140;-77
2022/05/25 11:22:17;;;;;;;0.65;0.65;;;;;22.20;94162.00;;;;7401916;19;20172;-77
2022/05/25 11:25:10;;;;;;;1.42;0.50;;;;;22.00;94152.00;;;;7402530;19;20253;-79
2022/05/25 11:28:23;;;;;;;2.33;0.85;;;;;21.80;94160.00;;;;7401372;19;20152;-79
2022/05/25 11:31:18;;;;;;;1.17;0.60;;;;;21.80;94160.00;;;;7403516;19;20469;-77
2022/05/25 11:34:14;;;;;;;0.63;0.60;;;;;21.20;94163.00;;;;7404032;19;20133;-78
2022/05/25 11:37:13;;;;;;;0.77;0.77;;;;;21.80;94154.00;;;;7401724;19;20174;-78
2022/05/25 11:39:54;;;;;;;1.17;0.65;;;;;22.00;94166.00;;;;7404124;19;20148;-79
2022/05/25 11:43:07;;;;;;;0.90;0.60;;;;;21.90;94168.00;;;;7404988;19;20141;-77
2022/05/25 11:45:40;;;;;;;1.35;0.80;;;;;22.20;94166.00;;;;7402303;19;20426;-77
2022/05/25 11:49:07;;;;;;;1.88;1.00;;;;;22.70;94165.00;;;;7403686;19;20153;-77
2022/05/25 11:51:57;;;;;;;1.38;0.70;;;;;21.10;94167.00;;;;7401860;19;20146;-78
2022/05/25 11:54:47;;;;;;;0.80;0.70;;;;;21.60;94166.00;;;;7404644;19;20205;-76
2022/05/25 11:57:24;;;;;;;1.48;0.93;;;;;21.70;94166.00;;;;7401978;19;20129;-78
2022/05/25 12:00:10;;;;;;;1.35;0.70;;;;;21.90;94188.00;;;;7402978;19;20172;-77
2022/05/25 12:03:03;;;;;;;3.17;0.60;;;;;22.00;94161.00;;;;7404469;19;20615;-78
2022/05/25 12:05:58;;;;;;;4.45;0.70;;;;;22.60;94162.00;;;;7399181;19;20232;-77
2022/05/25 12:08:45;;;;;;;2.33;1.00;;;;;22.10;94176.00;;;;7400866;19;20168;-77
2022/05/25 12:11:44;;;;;;;0.85;0.85;;;;;22.20;94163.00;;;;7402205;19;20137;-77
2022/05/25 12:14:31;;;;;;;2.83;0.75;;;;;23.00;94171.00;;;;7403683;19;20160;-77
2022/05/25 12:17:27;;;;;;;3.08;0.70;;;;;22.10;94167.00;;;;7401369;19;20601;-77
2022/05/25 12:19:58;;;;;;;2.95;0.77;;;;;21.80;94167.00;;;;7402859;19;20144;-77
2022/05/25 12:22:34;;;;;;;1.35;0.82;;;;;22.50;94166.00;;;;7403223;19;20247;-78
2022/05/25 12:25:09;;;;;;;2.45;0.80;;;;;22.30;94168.00;;;;7400931;19;20171;-77
2022/05/25 12:27:52;;;;;;;2.97;1.00;;;;;21.70;94158.00;;;;7400368;19;20141;-77
2022/05/25 12:30:35;;;;;;;1.95;0.80;;;;;22.60;94168.00;;;;7400614;19;20486;-75
2022/05/25 12:33:12;;;;;;;0.60;0.60;;;;;22.80;94168.00;;;;7399670;19;20224;-77
2022/05/25 12:35:41;;;;;;;2.97;0.80;;;;;22.30;94164.00;;;;7400101;19;20133;-76
2022/05/25 12:38:19;;;;;;;2.38;0.85;;;;;22.50;94167.00;;;;7402253;19;20150;-77
2022/05/25 12:40:49;;;;;;;2.00;1.00;;;;;23.60;94163.00;;;;7404413;19;20153;-77
2022/05/25 12:43:39;;;;;;;1.75;0.85;;;;;22.60;94166.00;;;;7401039;19;20144;-77
2022/05/25 12:49:07;;;;;;;2.45;1.05;;;;;22.50;94177.00;;;;7399026;19;20129;-78
2022/05/25 12:51:44;;;;;;;2.97;1.00;;;;;22.20;94179.00;;;;7398072;19;20200;-77
2022/05/25 12:54:25;;;;;;;1.55;0.80;;;;;21.90;94179.00;;;;7401379;19;20676;-78
2022/05/25 12:56:54;;;;;;;1.00;0.73;;;;;22.00;94185.00;;;;7393678;19;20642;-77
2022/05/25 12:59:40;;;;;;;3.38;0.80;;;;;21.40;94169.00;;;;7396975;19;20144;-77
2022/05/25 13:02:21;;;;;;;2.05;1.00;;;;;21.10;94178.00;;;;7398501;19;20746;-78
2022/05/25 13:05:06;;;;;;;1.20;1.00;;;;;20.90;94171.00;;;;7394893;19;20632;-77
2022/05/25 13:07:44;;;;;;;2.80;0.98;;;;;21.70;94170.00;;;;7396494;19;20615;-77
2022/05/25 13:10:21;;;;;;;2.83;0.90;;;;;21.90;94167.00;;;;7399477;19;20390;-77
2022/05/25 13:12:56;;;;;;;1.10;0.80;;;;;21.10;94173.00;;;;7398989;19;20603;-77
2022/05/25 13:15:40;;;;;;;1.70;1.10;;;;;20.90;94178.00;;;;7396552;19;20176;-78
2022/05/25 13:18:30;;;;;;;2.15;1.10;;;;;21.00;94182.00;;;;7397021;19;20148;-78
2022/05/25 13:21:05;;;;;;;1.33;0.80;;;;;21.30;94178.00;;;;7386605;19;20240;-77
2022/05/25 13:23:51;;;;;;;1.58;1.00;;;;;21.50;94172.00;;;;7393746;19;20148;-76
2022/05/25 13:27:06;;;;;;;2.15;1.10;;;;;22.30;94169.00;;;;7394110;19;20543;-78
2022/05/25 13:30:02;;;;;;;1.25;0.95;;;;;21.50;94188.00;;;;7392142;19;20184;-78
2022/05/25 13:33:01;;;;;;;1.45;0.93;;;;;21.70;94183.00;;;;7394619;19;20137;-77
2022/05/25 13:36:05;;;;;;;1.75;1.10;;;;;22.30;94187.00;;;;7392659;19;20617;-78